sensor_id;sensor_type;location;lat;lon;timestamp;pressure;altitude;pressure_sealevel;temperature;humidity
35908;BME280;22003;50.320;8.054;2024-03-02T00:00:19;98448.38;;;3.73;100.00
35908;BME280;22003;50.320;8.054;2024-03-02T00:02:46;98448.28;;;3.61;100.00
35908;BME280;22003;50.320;8.054;2024-03-02T00:05:19;98446.28;;;3.52;100.00
35908;BME280;22003;50.320;8.054;2024-03-02T00:07:47;98456.78;;;3.27;100.00
35908;BME280;22003;50.320;8.054;2024-03-02T00:10:20;98447.06;;;3.29;100.00
35908;BME280;22003;50.320;8.054;2024-03-02T00:12:46;98445.41;;;3.28;100.00
35908;BME280;22003;50.320;8.054;2024-03-02T00:17:59;98449.66;;;2.78;100.00
35908;BME280;22003;50.320;8.054;2024-03-02T00:20:24;98448.72;;;2.79;100.00
35908;BME280;22003;50.320;8.054;2024-03-02T00:23:01;98449.78;;;3.02;100.00
35908;BME280;22003;50.320;8.054;2024-03-02T00:25:38;98452.16;;;2.67;100.00
35908;BME280;22003;50.320;8.054;2024-03-02T00:28:04;98449.19;;;2.46;100.00
35908;BME280;22003;50.320;8.054;2024-03-02T00:30:57;98446.03;;;2.41;100.00
35908;BME280;22003;50.320;8.054;2024-03-02T00:33:25;98446.63;;;2.44;100.00
35908;BME280;22003;50.320;8.054;2024-03-02T00:35:51;98454.41;;;2.46;100.00
35908;BME280;22003;50.320;8.054;2024-03-02T00:38:17;98371.38;;;2.49;100.00
35908;BME280;22003;50.320;8.054;2024-03-02T00:40:42;98454.13;;;2.76;100.00
35908;BME280;22003;50.320;8.054;2024-03-02T00:46:11;98459.59;;;2.85;100.00
35908;BME280;22003;50.320;8.054;2024-03-02T00:48:38;98472.81;;;2.97;100.00
35908;BME280;22003;50.320;8.054;2024-03-02T00:51:04;98454.19;;;3.01;100.00
35908;BME280;22003;50.320;8.054;2024-03-02T00:53:29;98460.56;;;3.10;100.00
35908;BME280;22003;50.320;8.054;2024-03-02T00:55:55;98455.25;;;3.11;100.00
35908;BME280;22003;50.320;8.054;2024-03-02T00:58:20;98449.34;;;3.21;100.00
35908;BME280;22003;50.320;8.054;2024-03-02T01:00:46;98447.34;;;3.37;100.00
35908;BME280;22003;50.320;8.054;2024-03-02T01:03:12;98449.94;;;3.50;100.00
35908;BME280;22003;50.320;8.054;2024-03-02T01:05:41;98450.03;;;3.61;100.00
35908;BME280;22003;50.320;8.054;2024-03-02T01:08:07;98441.47;;;3.59;100.00
35908;BME280;22003;50.320;8.054;2024-03-02T01:10:32;98443.56;;;3.54;100.00
35908;BME280;22003;50.320;8.054;2024-03-02T01:12:58;98442.22;;;3.48;100.00
35908;BME280;22003;50.320;8.054;2024-03-02T01:15:23;98434.91;;;3.40;100.00
35908;BME280;22003;50.320;8.054;2024-03-02T01:17:48;98431.22;;;3.43;100.00
35908;BME280;22003;50.320;8.054;2024-03-02T01:20:14;98436.97;;;3.48;100.00
35908;BME280;22003;50.320;8.054;2024-03-02T01:22:39;98423.50;;;3.29;100.00
35908;BME280;22003;50.320;8.054;2024-03-02T01:25:04;98427.06;;;3.15;100.00
35908;BME280;22003;50.320;8.054;2024-03-02T01:27:30;98419.00;;;3.18;100.00
35908;BME280;22003;50.320;8.054;2024-03-02T01:29:55;98418.06;;;3.19;100.00
35908;BME280;22003;50.320;8.054;2024-03-02T01:32:20;98417.94;;;3.21;100.00
35908;BME280;22003;50.320;8.054;2024-03-02T01:34:46;98421.50;;;3.20;100.00
35908;BME280;22003;50.320;8.054;2024-03-02T01:37:11;98420.06;;;3.03;100.00
35908;BME280;22003;50.320;8.054;2024-03-02T01:39:36;98413.16;;;3.02;100.00
35908;BME280;22003;50.320;8.054;2024-03-02T01:42:02;98405.72;;;2.96;100.00
35908;BME280;22003;50.320;8.054;2024-03-02T01:44:27;98410.94;;;3.21;100.00
35908;BME280;22003;50.320;8.054;2024-03-02T01:46:52;98396.50;;;3.15;100.00
35908;BME280;22003;50.320;8.054;2024-03-02T01:49:17;98408.34;;;3.08;100.00
35908;BME280;22003;50.320;8.054;2024-03-02T01:51:44;98317.53;;;2.47;100.00
35908;BME280;22003;50.320;8.054;2024-03-02T01:54:09;98386.06;;;2.90;100.00
35908;BME280;22003;50.320;8.054;2024-03-02T01:56:34;98406.47;;;2.85;100.00
35908;BME280;22003;50.320;8.054;2024-03-02T01:58:59;98399.88;;;2.79;100.00
35908;BME280;22003;50.320;8.054;2024-03-02T02:01:25;98388.97;;;2.73;100.00
35908;BME280;22003;50.320;8.054;2024-03-02T02:03:50;98386.56;;;2.70;100.00
35908;BME280;22003;50.320;8.054;2024-03-02T02:06:15;98393.03;;;2.64;100.00
35908;BME280;22003;50.320;8.054;2024-03-02T02:08:40;98396.91;;;2.71;100.00
35908;BME280;22003;50.320;8.054;2024-03-02T02:11:06;98394.00;;;2.76;100.00
35908;BME280;22003;50.320;8.054;2024-03-02T02:13:31;98386.97;;;2.63;100.00
35908;BME280;22003;50.320;8.054;2024-03-02T02:16:05;98375.28;;;2.56;100.00
35908;BME280;22003;50.320;8.054;2024-03-02T02:18:30;98373.06;;;2.50;100.00
35908;BME280;22003;50.320;8.054;2024-03-02T02:20:55;98382.03;;;2.46;100.00
35908;BME280;22003;50.320;8.054;2024-03-02T02:23:20;98380.38;;;2.58;100.00
35908;BME280;22003;50.320;8.054;2024-03-02T02:25:46;98386.25;;;2.61;100.00
35908;BME280;22003;50.320;8.054;2024-03-02T02:28:11;98379.13;;;2.63;100.00
35908;BME280;22003;50.320;8.054;2024-03-02T02:30:36;98375.78;;;2.74;100.00
35908;BME280;22003;50.320;8.054;2024-03-02T02:33:02;98357.91;;;2.81;100.00
35908;BME280;22003;50.320;8.054;2024-03-02T02:35:27;98373.69;;;2.92;100.00
35908;BME280;22003;50.320;8.054;2024-03-02T02:37:55;98369.53;;;2.89;100.00
35908;BME280;22003;50.320;8.054;2024-03-02T02:40:20;98364.59;;;2.85;100.00
35908;BME280;22003;50.320;8.054;2024-03-02T02:42:46;98280.38;;;2.16;100.00
35908;BME280;22003;50.320;8.054;2024-03-02T02:45:12;98298.16;;;2.11;100.00
35908;BME280;22003;50.320;8.054;2024-03-02T02:47:39;98364.50;;;2.61;100.00
35908;BME280;22003;50.320;8.054;2024-03-02T02:50:06;98364.22;;;2.26;100.00
35908;BME280;22003;50.320;8.054;2024-03-02T02:52:32;98346.03;;;2.11;100.00
35908;BME280;22003;50.320;8.054;2024-03-02T02:54:58;98354.19;;;2.20;100.00
35908;BME280;22003;50.320;8.054;2024-03-02T02:57:24;98344.88;;;2.16;100.00
35908;BME280;22003;50.320;8.054;2024-03-02T02:59:49;98338.78;;;2.02;100.00
35908;BME280;22003;50.320;8.054;2024-03-02T03:02:14;98344.19;;;1.99;100.00
35908;BME280;22003;50.320;8.054;2024-03-02T03:04:40;98334.91;;;1.95;100.00
35908;BME280;22003;50.320;8.054;2024-03-02T03:07:05;98342.50;;;2.25;100.00
35908;BME280;22003;50.320;8.054;2024-03-02T03:09:31;98343.66;;;2.59;100.00
35908;BME280;22003;50.320;8.054;2024-03-02T03:11:56;98356.53;;;3.13;100.00
35908;BME280;22003;50.320;8.054;2024-03-02T03:14:21;98355.69;;;3.50;100.00
35908;BME280;22003;50.320;8.054;2024-03-02T03:16:46;98354.91;;;3.36;100.00
35908;BME280;22003;50.320;8.054;2024-03-02T03:19:13;98338.25;;;3.37;100.00
35908;BME280;22003;50.320;8.054;2024-03-02T03:21:38;98348.13;;;3.34;100.00
35908;BME280;22003;50.320;8.054;2024-03-02T03:24:04;98348.13;;;3.34;100.00
35908;BME280;22003;50.320;8.054;2024-03-02T03:26:29;98344.22;;;3.39;100.00
35908;BME280;22003;50.320;8.054;2024-03-02T03:28:55;98350.38;;;3.51;100.00
35908;BME280;22003;50.320;8.054;2024-03-02T03:31:20;98342.84;;;3.47;100.00
35908;BME280;22003;50.320;8.054;2024-03-02T03:33:45;98345.53;;;3.58;100.00
35908;BME280;22003;50.320;8.054;2024-03-02T03:36:10;98356.56;;;3.50;100.00
35908;BME280;22003;50.320;8.054;2024-03-02T03:38:36;98338.81;;;3.66;100.00
35908;BME280;22003;50.320;8.054;2024-03-02T03:41:01;98325.34;;;3.47;100.00
35908;BME280;22003;50.320;8.054;2024-03-02T03:43:26;98334.16;;;3.46;100.00
35908;BME280;22003;50.320;8.054;2024-03-02T03:45:51;98334.47;;;3.41;100.00
35908;BME280;22003;50.320;8.054;2024-03-02T03:48:17;98340.53;;;3.42;100.00
35908;BME280;22003;50.320;8.054;2024-03-02T03:50:42;98298.75;;;3.16;100.00
35908;BME280;22003;50.320;8.054;2024-03-02T03:53:08;98328.91;;;3.46;100.00
35908;BME280;22003;50.320;8.054;2024-03-02T03:55:33;98338.06;;;3.64;100.00
35908;BME280;22003;50.320;8.054;2024-03-02T03:57:58;98327.31;;;3.56;100.00
35908;BME280;22003;50.320;8.054;2024-03-02T04:00:24;98332.75;;;3.53;100.00
35908;BME280;22003;50.320;8.054;2024-03-02T04:02:49;98335.38;;;3.53;100.00
35908;BME280;22003;50.320;8.054;2024-03-02T04:05:14;98336.50;;;3.62;100.00
35908;BME280;22003;50.320;8.054;2024-03-02T04:07:39;98346.56;;;3.55;100.00
35908;BME280;22003;50.320;8.054;2024-03-02T04:10:09;98347.13;;;3.71;100.00
35908;BME280;22003;50.320;8.054;2024-03-02T04:12:36;98342.78;;;3.59;100.00
35908;BME280;22003;50.320;8.054;2024-03-02T04:15:03;98354.72;;;3.63;100.00
35908;BME280;22003;50.320;8.054;2024-03-02T04:17:29;98353.13;;;3.74;100.00
35908;BME280;22003;50.320;8.054;2024-03-02T04:19:54;98353.31;;;3.47;100.00
35908;BME280;22003;50.320;8.054;2024-03-02T04:22:19;98351.44;;;3.36;100.00
35908;BME280;22003;50.320;8.054;2024-03-02T04:24:44;98351.78;;;3.31;100.00
35908;BME280;22003;50.320;8.054;2024-03-02T04:27:10;98359.94;;;3.27;100.00
35908;BME280;22003;50.320;8.054;2024-03-02T04:29:35;98344.28;;;3.14;100.00
35908;BME280;22003;50.320;8.054;2024-03-02T04:32:00;98354.31;;;3.20;100.00
35908;BME280;22003;50.320;8.054;2024-03-02T04:34:25;98354.09;;;3.10;100.00
35908;BME280;22003;50.320;8.054;2024-03-02T04:36:51;98347.13;;;2.98;100.00
35908;BME280;22003;50.320;8.054;2024-03-02T04:39:16;98351.41;;;2.99;100.00
35908;BME280;22003;50.320;8.054;2024-03-02T04:41:41;98349.00;;;2.96;100.00
35908;BME280;22003;50.320;8.054;2024-03-02T04:44:06;98352.06;;;2.90;100.00
35908;BME280;22003;50.320;8.054;2024-03-02T04:46:33;98356.84;;;2.96;100.00
35908;BME280;22003;50.320;8.054;2024-03-02T04:48:58;98364.16;;;3.04;100.00
35908;BME280;22003;50.320;8.054;2024-03-02T04:51:23;98358.50;;;3.10;100.00
35908;BME280;22003;50.320;8.054;2024-03-02T04:53:48;98367.41;;;3.07;100.00
35908;BME280;22003;50.320;8.054;2024-03-02T04:56:14;98376.63;;;3.00;100.00
35908;BME280;22003;50.320;8.054;2024-03-02T04:58:51;98373.16;;;3.12;100.00
35908;BME280;22003;50.320;8.054;2024-03-02T05:01:16;98290.13;;;2.52;100.00
35908;BME280;22003;50.320;8.054;2024-03-02T05:03:42;98381.13;;;2.98;100.00
35908;BME280;22003;50.320;8.054;2024-03-02T05:06:07;98385.31;;;3.13;100.00
35908;BME280;22003;50.320;8.054;2024-03-02T05:08:33;98388.34;;;3.07;100.00
35908;BME280;22003;50.320;8.054;2024-03-02T05:10:59;98386.25;;;3.12;100.00
35908;BME280;22003;50.320;8.054;2024-03-02T05:13:44;98391.78;;;3.08;100.00
35908;BME280;22003;50.320;8.054;2024-03-02T05:16:09;98389.72;;;3.00;100.00
35908;BME280;22003;50.320;8.054;2024-03-02T05:18:34;98386.59;;;2.95;100.00
35908;BME280;22003;50.320;8.054;2024-03-02T05:21:00;98392.97;;;2.91;100.00
35908;BME280;22003;50.320;8.054;2024-03-02T05:23:25;98399.31;;;2.87;100.00
35908;BME280;22003;50.320;8.054;2024-03-02T05:25:50;98396.72;;;2.87;100.00
35908;BME280;22003;50.320;8.054;2024-03-02T05:28:15;98391.72;;;2.84;100.00
35908;BME280;22003;50.320;8.054;2024-03-02T05:30:42;98393.38;;;2.85;100.00
35908;BME280;22003;50.320;8.054;2024-03-02T05:33:07;98401.13;;;2.86;100.00
35908;BME280;22003;50.320;8.054;2024-03-02T05:35:33;98406.97;;;2.90;100.00
35908;BME280;22003;50.320;8.054;2024-03-02T05:37:58;98411.38;;;3.02;100.00
35908;BME280;22003;50.320;8.054;2024-03-02T05:40:24;98406.13;;;3.15;100.00
35908;BME280;22003;50.320;8.054;2024-03-02T05:42:49;98403.59;;;3.26;100.00
35908;BME280;22003;50.320;8.054;2024-03-02T05:45:14;98408.84;;;3.39;100.00
35908;BME280;22003;50.320;8.054;2024-03-02T05:47:41;98408.19;;;3.48;100.00
35908;BME280;22003;50.320;8.054;2024-03-02T05:50:07;98428.25;;;3.60;100.00
35908;BME280;22003;50.320;8.054;2024-03-02T05:52:32;98414.81;;;3.78;100.00
35908;BME280;22003;50.320;8.054;2024-03-02T05:54:57;98410.56;;;3.88;100.00
35908;BME280;22003;50.320;8.054;2024-03-02T05:57:23;98415.59;;;3.91;100.00
35908;BME280;22003;50.320;8.054;2024-03-02T06:00:10;98411.72;;;3.96;100.00
35908;BME280;22003;50.320;8.054;2024-03-02T06:02:39;98421.81;;;4.14;100.00
35908;BME280;22003;50.320;8.054;2024-03-02T06:05:05;98413.38;;;4.21;100.00
35908;BME280;22003;50.320;8.054;2024-03-02T06:07:32;98419.69;;;4.19;100.00
35908;BME280;22003;50.320;8.054;2024-03-02T06:09:57;98414.50;;;4.30;100.00
35908;BME280;22003;50.320;8.054;2024-03-02T06:12:23;98420.69;;;4.29;100.00
35908;BME280;22003;50.320;8.054;2024-03-02T06:14:48;98417.50;;;4.37;100.00
35908;BME280;22003;50.320;8.054;2024-03-02T06:17:14;98415.78;;;4.24;100.00
35908;BME280;22003;50.320;8.054;2024-03-02T06:19:39;98418.69;;;4.44;100.00
35908;BME280;22003;50.320;8.054;2024-03-02T06:22:04;98420.63;;;4.42;100.00
35908;BME280;22003;50.320;8.054;2024-03-02T06:24:30;98416.06;;;4.44;100.00
35908;BME280;22003;50.320;8.054;2024-03-02T06:26:55;98419.94;;;4.51;100.00
35908;BME280;22003;50.320;8.054;2024-03-02T06:29:21;98427.06;;;4.49;100.00
35908;BME280;22003;50.320;8.054;2024-03-02T06:31:47;98426.22;;;4.48;100.00
35908;BME280;22003;50.320;8.054;2024-03-02T06:34:12;98434.09;;;4.48;100.00
35908;BME280;22003;50.320;8.054;2024-03-02T06:36:38;98438.84;;;4.43;100.00
35908;BME280;22003;50.320;8.054;2024-03-02T06:39:05;98447.34;;;4.47;100.00
35908;BME280;22003;50.320;8.054;2024-03-02T06:41:30;98438.84;;;4.43;100.00
35908;BME280;22003;50.320;8.054;2024-03-02T06:43:56;98444.00;;;4.45;100.00
35908;BME280;22003;50.320;8.054;2024-03-02T06:46:25;98448.53;;;4.54;100.00
35908;BME280;22003;50.320;8.054;2024-03-02T06:48:50;98448.84;;;4.62;100.00
35908;BME280;22003;50.320;8.054;2024-03-02T06:51:16;98447.75;;;4.65;100.00
35908;BME280;22003;50.320;8.054;2024-03-02T06:53:41;98445.16;;;4.76;100.00
35908;BME280;22003;50.320;8.054;2024-03-02T06:56:07;98448.41;;;4.80;100.00
35908;BME280;22003;50.320;8.054;2024-03-02T06:58:32;98391.59;;;4.56;100.00
35908;BME280;22003;50.320;8.054;2024-03-02T07:00:58;98458.25;;;5.00;100.00
35908;BME280;22003;50.320;8.054;2024-03-02T07:03:23;98460.66;;;5.14;100.00
35908;BME280;22003;50.320;8.054;2024-03-02T07:05:48;98460.66;;;5.37;100.00
35908;BME280;22003;50.320;8.054;2024-03-02T07:08:13;98456.03;;;5.40;100.00
35908;BME280;22003;50.320;8.054;2024-03-02T07:10:38;98455.69;;;5.45;100.00
35908;BME280;22003;50.320;8.054;2024-03-02T07:13:04;98473.59;;;5.51;100.00
35908;BME280;22003;50.320;8.054;2024-03-02T07:15:29;98444.34;;;5.55;100.00
35908;BME280;22003;50.320;8.054;2024-03-02T07:18:13;98445.25;;;5.66;100.00
35908;BME280;22003;50.320;8.054;2024-03-02T07:20:38;98443.94;;;5.82;100.00
35908;BME280;22003;50.320;8.054;2024-03-02T07:23:04;98432.72;;;5.80;100.00
35908;BME280;22003;50.320;8.054;2024-03-02T07:25:29;98458.41;;;5.99;100.00
35908;BME280;22003;50.320;8.054;2024-03-02T07:27:55;98378.28;;;5.49;100.00
35908;BME280;22003;50.320;8.054;2024-03-02T07:30:20;98457.34;;;6.02;100.00
35908;BME280;22003;50.320;8.054;2024-03-02T07:32:46;98462.13;;;6.40;100.00
35908;BME280;22003;50.320;8.054;2024-03-02T07:35:12;98462.41;;;6.26;100.00
35908;BME280;22003;50.320;8.054;2024-03-02T07:37:38;98466.81;;;6.37;100.00
35908;BME280;22003;50.320;8.054;2024-03-02T07:40:04;98473.72;;;6.38;99.80
35908;BME280;22003;50.320;8.054;2024-03-02T07:42:29;98477.97;;;6.61;99.50
35908;BME280;22003;50.320;8.054;2024-03-02T07:44:55;98476.75;;;6.65;97.21
35908;BME280;22003;50.320;8.054;2024-03-02T07:47:20;98475.72;;;6.56;97.70
35908;BME280;22003;50.320;8.054;2024-03-02T07:49:45;98479.00;;;6.70;97.59
35908;BME280;22003;50.320;8.054;2024-03-02T07:52:11;98478.13;;;6.80;97.93
35908;BME280;22003;50.320;8.054;2024-03-02T07:54:36;98467.41;;;6.72;97.63
35908;BME280;22003;50.320;8.054;2024-03-02T07:57:02;98488.88;;;6.88;96.99
35908;BME280;22003;50.320;8.054;2024-03-02T07:59:27;98484.16;;;6.92;96.95
35908;BME280;22003;50.320;8.054;2024-03-02T08:01:53;98433.09;;;6.63;97.02
35908;BME280;22003;50.320;8.054;2024-03-02T08:04:20;98507.66;;;7.05;95.80
35908;BME280;22003;50.320;8.054;2024-03-02T08:06:45;98485.91;;;7.03;96.03
35908;BME280;22003;50.320;8.054;2024-03-02T08:09:10;98491.56;;;7.19;96.18
35908;BME280;22003;50.320;8.054;2024-03-02T08:11:36;98491.72;;;7.48;95.54
35908;BME280;22003;50.320;8.054;2024-03-02T08:14:02;98490.56;;;7.72;93.35
35908;BME280;22003;50.320;8.054;2024-03-02T08:16:28;98480.63;;;7.45;91.86
35908;BME280;22003;50.320;8.054;2024-03-02T08:18:53;98491.78;;;7.58;91.00
35908;BME280;22003;50.320;8.054;2024-03-02T08:21:19;98490.03;;;7.68;91.10
35908;BME280;22003;50.320;8.054;2024-03-02T08:23:44;98467.38;;;7.56;90.50
35908;BME280;22003;50.320;8.054;2024-03-02T08:26:10;98488.38;;;7.67;90.86
35908;BME280;22003;50.320;8.054;2024-03-02T08:28:36;98487.69;;;7.75;89.30
35908;BME280;22003;50.320;8.054;2024-03-02T08:31:06;98490.03;;;7.68;88.75
35908;BME280;22003;50.320;8.054;2024-03-02T08:33:31;98494.28;;;7.59;89.20
35908;BME280;22003;50.320;8.054;2024-03-02T08:35:56;98439.81;;;7.39;89.10
35908;BME280;22003;50.320;8.054;2024-03-02T08:38:22;98490.75;;;7.49;89.19
35908;BME280;22003;50.320;8.054;2024-03-02T08:40:47;98484.34;;;7.42;88.98
35908;BME280;22003;50.320;8.054;2024-03-02T08:43:14;98487.19;;;7.29;89.65
35908;BME280;22003;50.320;8.054;2024-03-02T08:45:39;98485.78;;;7.25;90.24
35908;BME280;22003;50.320;8.054;2024-03-02T08:48:07;98482.44;;;7.54;90.54
35908;BME280;22003;50.320;8.054;2024-03-02T08:50:33;98489.81;;;7.50;89.40
35908;BME280;22003;50.320;8.054;2024-03-02T08:52:58;98493.97;;;7.53;89.48
35908;BME280;22003;50.320;8.054;2024-03-02T08:55:24;98490.03;;;7.68;89.25
35908;BME280;22003;50.320;8.054;2024-03-02T08:57:49;98490.03;;;8.08;88.10
35908;BME280;22003;50.320;8.054;2024-03-02T09:00:16;98371.34;;;7.49;87.84
35908;BME280;22003;50.320;8.054;2024-03-02T09:02:43;98487.31;;;8.29;85.67
35908;BME280;22003;50.320;8.054;2024-03-02T09:05:09;98452.81;;;8.02;85.69
35908;BME280;22003;50.320;8.054;2024-03-02T09:07:35;98493.59;;;8.38;85.22
35908;BME280;22003;50.320;8.054;2024-03-02T09:10:00;98495.06;;;8.21;85.29
35908;BME280;22003;50.320;8.054;2024-03-02T09:12:25;98491.41;;;8.53;85.76
35908;BME280;22003;50.320;8.054;2024-03-02T09:14:50;98483.50;;;8.72;85.42
35908;BME280;22003;50.320;8.054;2024-03-02T09:17:17;98485.97;;;9.03;82.58
35908;BME280;22003;50.320;8.054;2024-03-02T09:19:42;98481.25;;;9.06;81.12
35908;BME280;22003;50.320;8.054;2024-03-02T09:22:07;98467.34;;;9.04;80.75
35908;BME280;22003;50.320;8.054;2024-03-02T09:24:32;98478.03;;;9.22;80.71
35908;BME280;22003;50.320;8.054;2024-03-02T09:27:00;98475.31;;;9.61;79.12
35908;BME280;22003;50.320;8.054;2024-03-02T09:29:26;98473.75;;;9.68;78.44
35908;BME280;22003;50.320;8.054;2024-03-02T09:31:51;98413.75;;;9.68;77.46
35908;BME280;22003;50.320;8.054;2024-03-02T09:34:17;98471.31;;;9.84;77.17
35908;BME280;22003;50.320;8.054;2024-03-02T09:36:42;98470.25;;;9.67;77.81
35908;BME280;22003;50.320;8.054;2024-03-02T09:39:08;98466.06;;;9.65;77.00
35908;BME280;22003;50.320;8.054;2024-03-02T09:41:35;98463.13;;;9.77;77.35
35908;BME280;22003;50.320;8.054;2024-03-02T09:44:01;98467.94;;;9.82;76.99
35908;BME280;22003;50.320;8.054;2024-03-02T09:46:27;98456.25;;;9.85;75.80
35908;BME280;22003;50.320;8.054;2024-03-02T09:48:53;98457.28;;;9.74;75.47
35908;BME280;22003;50.320;8.054;2024-03-02T09:51:19;98460.97;;;9.91;75.53
35908;BME280;22003;50.320;8.054;2024-03-02T09:53:45;98453.69;;;9.93;76.39
35908;BME280;22003;50.320;8.054;2024-03-02T09:56:11;98453.44;;;10.41;74.97
35908;BME280;22003;50.320;8.054;2024-03-02T09:58:38;98459.72;;;10.40;74.40
35908;BME280;22003;50.320;8.054;2024-03-02T10:01:06;98454.41;;;10.22;73.80
35908;BME280;22003;50.320;8.054;2024-03-02T10:03:33;98371.50;;;9.76;75.09
35908;BME280;22003;50.320;8.054;2024-03-02T10:06:27;98443.53;;;10.25;73.80
35908;BME280;22003;50.320;8.054;2024-03-02T10:08:54;98447.16;;;10.24;73.75
35908;BME280;22003;50.320;8.054;2024-03-02T10:11:34;98383.59;;;10.07;73.61
35908;BME280;22003;50.320;8.054;2024-03-02T10:14:09;98449.75;;;10.70;72.54
35908;BME280;22003;50.320;8.054;2024-03-02T10:16:42;98445.38;;;10.61;73.20
35908;BME280;22003;50.320;8.054;2024-03-02T10:19:17;98441.03;;;10.60;72.89
35908;BME280;22003;50.320;8.054;2024-03-02T10:21:51;98435.53;;;10.89;72.22
35908;BME280;22003;50.320;8.054;2024-03-02T10:24:21;98442.19;;;11.19;71.32
35908;BME280;22003;50.320;8.054;2024-03-02T10:26:47;98431.78;;;10.99;71.16
35908;BME280;22003;50.320;8.054;2024-03-02T10:29:12;98435.72;;;10.95;71.29
35908;BME280;22003;50.320;8.054;2024-03-02T10:31:38;98427.13;;;11.19;70.80
35908;BME280;22003;50.320;8.054;2024-03-02T10:34:05;98431.13;;;11.23;69.63
35908;BME280;22003;50.320;8.054;2024-03-02T10:36:30;98437.75;;;11.01;70.53
35908;BME280;22003;50.320;8.054;2024-03-02T10:38:56;98431.19;;;10.88;70.87
35908;BME280;22003;50.320;8.054;2024-03-02T10:41:24;98403.59;;;10.98;70.56
35908;BME280;22003;50.320;8.054;2024-03-02T10:43:52;98420.78;;;11.12;70.57
35908;BME280;22003;50.320;8.054;2024-03-02T10:46:20;98359.88;;;10.94;70.62
35908;BME280;22003;50.320;8.054;2024-03-02T10:48:47;98410.16;;;11.38;69.62
35908;BME280;22003;50.320;8.054;2024-03-02T10:51:14;98418.34;;;11.53;68.69
35908;BME280;22003;50.320;8.054;2024-03-02T10:53:40;98424.22;;;11.99;68.47
35908;BME280;22003;50.320;8.054;2024-03-02T10:56:07;98420.81;;;12.31;67.83
35908;BME280;22003;50.320;8.054;2024-03-02T10:58:33;98417.84;;;12.42;67.42
35908;BME280;22003;50.320;8.054;2024-03-02T11:01:02;98406.22;;;12.43;66.53
35908;BME280;22003;50.320;8.054;2024-03-02T11:03:30;98412.56;;;12.34;66.11
35908;BME280;22003;50.320;8.054;2024-03-02T11:05:59;98405.91;;;12.22;65.76
35908;BME280;22003;50.320;8.054;2024-03-02T11:08:27;98411.53;;;12.43;65.87
35908;BME280;22003;50.320;8.054;2024-03-02T11:10:58;98418.13;;;12.14;66.81
35908;BME280;22003;50.320;8.054;2024-03-02T11:13:34;98409.88;;;12.42;66.95
35908;BME280;22003;50.320;8.054;2024-03-02T11:16:04;98419.16;;;12.38;66.95
35908;BME280;22003;50.320;8.054;2024-03-02T11:18:31;98418.81;;;12.25;66.84
35908;BME280;22003;50.320;8.054;2024-03-02T11:20:58;98418.16;;;12.23;67.18
35908;BME280;22003;50.320;8.054;2024-03-02T11:23:34;98418.59;;;12.02;67.04
35908;BME280;22003;50.320;8.054;2024-03-02T11:28:47;98418.84;;;12.49;66.15
35908;BME280;22003;50.320;8.054;2024-03-02T11:31:13;98414.63;;;12.06;67.15
35908;BME280;22003;50.320;8.054;2024-03-02T11:33:38;98406.91;;;12.37;66.20
35908;BME280;22003;50.320;8.054;2024-03-02T11:36:06;98335.38;;;12.52;65.69
35908;BME280;22003;50.320;8.054;2024-03-02T11:38:33;98400.78;;;13.02;64.24
35908;BME280;22003;50.320;8.054;2024-03-02T11:41:02;98336.78;;;13.28;63.67
35908;BME280;22003;50.320;8.054;2024-03-02T11:43:29;98405.28;;;13.73;62.18
35908;BME280;22003;50.320;8.054;2024-03-02T11:45:59;98389.63;;;13.78;61.94
35908;BME280;22003;50.320;8.054;2024-03-02T11:48:25;98399.38;;;13.94;61.84
35908;BME280;22003;50.320;8.054;2024-03-02T11:50:50;98398.13;;;14.05;61.59
35908;BME280;22003;50.320;8.054;2024-03-02T11:53:16;98398.41;;;14.18;60.72
35908;BME280;22003;50.320;8.054;2024-03-02T11:55:42;98405.75;;;14.47;60.69
35908;BME280;22003;50.320;8.054;2024-03-02T11:58:16;98395.44;;;14.13;61.69
35908;BME280;22003;50.320;8.054;2024-03-02T12:00:43;98338.00;;;13.87;61.23
35908;BME280;22003;50.320;8.054;2024-03-02T12:03:10;98391.69;;;14.76;60.43
35908;BME280;22003;50.320;8.054;2024-03-02T12:05:37;98379.47;;;14.82;59.12
35908;BME280;22003;50.320;8.054;2024-03-02T12:08:04;98378.41;;;14.91;58.60
35908;BME280;22003;50.320;8.054;2024-03-02T12:10:30;98379.25;;;14.91;59.65
35908;BME280;22003;50.320;8.054;2024-03-02T12:13:03;98374.38;;;14.95;58.68
35908;BME280;22003;50.320;8.054;2024-03-02T12:15:31;98372.22;;;14.75;58.65
35908;BME280;22003;50.320;8.054;2024-03-02T12:17:57;98376.63;;;14.68;58.22
35908;BME280;22003;50.320;8.054;2024-03-02T12:20:24;98381.38;;;14.96;58.99
35908;BME280;22003;50.320;8.054;2024-03-02T12:22:53;98370.16;;;15.15;57.52
35908;BME280;22003;50.320;8.054;2024-03-02T12:25:23;98367.66;;;14.99;57.17
35908;BME280;22003;50.320;8.054;2024-03-02T12:27:54;98371.34;;;14.98;58.57
35908;BME280;22003;50.320;8.054;2024-03-02T12:30:20;98377.81;;;15.18;56.76
35908;BME280;22003;50.320;8.054;2024-03-02T12:32:46;98355.03;;;15.16;56.77
35908;BME280;22003;50.320;8.054;2024-03-02T12:35:12;98280.84;;;14.67;57.07
35908;BME280;22003;50.320;8.054;2024-03-02T12:37:48;98362.06;;;15.09;56.54
35908;BME280;22003;50.320;8.054;2024-03-02T12:40:14;98357.28;;;14.89;57.83
35908;BME280;22003;50.320;8.054;2024-03-02T12:42:40;98346.25;;;15.07;56.04
35908;BME280;22003;50.320;8.054;2024-03-02T12:45:07;98337.50;;;14.98;56.20
35908;BME280;22003;50.320;8.054;2024-03-02T12:47:33;98353.00;;;15.32;55.45
35908;BME280;22003;50.320;8.054;2024-03-02T12:49:59;98343.53;;;15.45;55.72
35908;BME280;22003;50.320;8.054;2024-03-02T12:52:24;98341.31;;;15.34;54.78
35908;BME280;22003;50.320;8.054;2024-03-02T12:54:50;98337.63;;;15.35;55.27
35908;BME280;22003;50.320;8.054;2024-03-02T12:57:19;98327.31;;;15.02;55.06
35908;BME280;22003;50.320;8.054;2024-03-02T12:59:47;98348.44;;;14.89;55.57
35908;BME280;22003;50.320;8.054;2024-03-02T13:02:19;98272.50;;;14.47;55.86
35908;BME280;22003;50.320;8.054;2024-03-02T13:04:52;98334.84;;;15.13;54.93
35908;BME280;22003;50.320;8.054;2024-03-02T13:07:19;98336.56;;;14.91;55.91